Share

Kuching, Malaysia

Kuching International (WBGG) Elev 89 ft | 1.48 °N, 110.33 °E | Change Station

Current weather conditions updated 23 minutes ago

Light Rain
Light Rain
77 °F
Feels Like 77 °F
N
4
Wind Variable Wind from South
Sunrise 6:32 AM
Sunset 6:42 PM
Moon Waning Gibbous

Tomorrow is forecast to be Cooler than today. Showers and thunderstorms.

Pressure 29.89 in
Visibility 5.0 miles
Clouds Few 100 ft
Scattered Clouds 2000 ft
Mostly Cloudy 15000 ft
Dew Point 75 °F
Humidity 94%
Rainfall 0.00 in
Snow Depth Not available.
UV 0 out of 16
Pollen Not available.
Air Quality Not available.
Flu Activity Not available.
METAR WBGG 211530Z 18003KT 8000 -RA FEW001 SCT020 BKN150 25/24 Q1012 NOSIG

More Conditions Fewer Conditions

Pressure 29.89 in
Visibility 5.0 miles
Clouds Few 100 ft
Scattered Clouds 2000 ft
Mostly Cloudy 15000 ft
Dew Point 75 °F
Humidity 94%
Rainfall 0.00 in
Snow Depth Not available.
UV 0 out of 16
Pollen Not available.
Air Quality Not available.
Flu Activity Not available.
METAR WBGG 211530Z 18003KT 8000 -RA FEW001 SCT020 BKN150 25/24 Q1012 NOSIG

More Conditions Fewer Conditions

10-Day Weather Forecast

Almanac

Astronomy

Apr. 21, 2014 Rise Set
Actual Time 6:32 AM MYT 6:42 PM MYT
Civil Twilight 6:11 AM MYT 7:03 PM MYT
Nautical Twilight 5:47 AM MYT 7:27 PM MYT
Astronomical Twilight 5:22 AM MYT 7:52 PM MYT
Moon No Moon Rise 11:44 AM MYT
Length of Visible Light 12h 51m
Length of Day
12h 09m
Tomorrow will be 0m 6s longer.
Waning Gibbous, 58% of the Moon is Illuminated
Today
Waning Gibbous
Apr 22
Last Quarter
Apr 29
New
May 6
First Quarter
May 14
Full

Today's Extremes

Country Highs Country Lows

Community

  • Bright Eyes
    Bright Eyes
  • Snowy Robin
    Snowy Robin
  • Spring Crocus
    Spring Crocus
  • Sun Pillar and Geese
    Sun Pillar and Geese
  • Showers on the Way
    Showers on the Way

WunderPhotos

Upload Photos

1,703,667 photos uploaded!

Nearby

Snow Depth

Not available.

Coastal Water Temperatures

Place Temperature
No Stations Reporting

Earthquake Activity

City Distance Mag. Time & Date
No recent earthquake activity has been reported nearby.
Minimum magnitude displayed is 2.5.

Nearby Weather Stations

Station Location Temp. Heat Index Dew Point Humidity Wind Precip. Elev Updated Type
Tabuan Desa Indah, Kuching 76.5 °F 77 °F 75 °F 94% East  at  0.0 mph 0.13 in / hr 26 ft 11:45 PM MYT Normal

Show More Stations Show Fewer Stations

What do you think?

We're not finished. Please let us know what you like, what you don't like, and what you are still missing.